Russell, KS

22:06 CDT le 21 octobre 2014 (GMT -0500)
Hill City Municipal | Change Station
CLOSE
Current Station
Aéroport
Location: Hill City,
Altitude: 2224 ft
Stations météo à proximité

Alt. 2224 ft 39.37 °N, 99.83 °W | Updated 13 minutes ago

Ciel dégagé
Ciel dégagé
69 ° F
Paraît 69 ° F
N
14
Vent Variable Vent de SSE

Aujourd'hui
Haut(e) -- | Bas -- ° F
--% Risque de précip.
Hier
Haut(e) -- | Bas -- ° F
Precip. -- pouce
7:50 AM 6:48 PM
Lune descendante, 3% visible
Pression 29.93 pouce
Visibilité 10.0 Miles terrestres
Nuages Ciel dégagé
Point de rosée 54 ° F
Humidité 58%
Précipitations 0.00 pouce
Profondeur de la couche neigeuse Non disponible.
UV 0 sur 12
Pollen 3.00 sur 12
Qualité de l'air Non disponible.
Flu Activity No Activity
METAR KHLC 220253Z AUTO 16012KT 10SM CLR 21/12 A2996 RMK AO2 SLP134 T02060122 51003

More Conditions Fewer Conditions

Pression 29.93 pouce
Visibilité 10.0 Miles terrestres
Nuages Ciel dégagé
Point de rosée 54 ° F
Humidité 58%
Précipitations 0.00 pouce
Profondeur de la couche neigeuse Non disponible.
UV 0 sur 12
Pollen 3.00 sur 12
Qualité de l'air Non disponible.
Flu Activity No Activity
METAR KHLC 220253Z AUTO 16012KT 10SM CLR 21/12 A2996 RMK AO2 SLP134 T02060122 51003

More Conditions Fewer Conditions

10-Day Weather Forecast

Almanac

Astronomie

Oct. 21, 2014 Lever Coucher
Temps réel 07:50 CDT 18:48 CDT
Crépuscule civil 07:23 CDT 19:15 CDT
Crépuscule nautique 06:52 CDT 19:46 CDT
Crépuscule astronomique 06:21 CDT 20:17 CDT
Lune 05:37 CDT (10/21) 17:42 CDT (10/21)
Durée de lumière visible 11h 51m
Longueur du jour
10h 57m
Tomorrow will be 2m 22s shorter.
Lune descendante, 3% of the Moon is Illuminated
Aujourd'hui
Lune descendante
Oct 23
Nouveau
Oct 30
Premier quartier
Nov 6
Pleine lune
Nov 14
Dernier quartier

Extrêmes aujourd'hui

State Highs State Lows

Community

WunderPhotos

Upload Photos

1,763,866 Photos téléchargées !

Nearby

Épaisseur de neige

Station Depth Altitude
Pas de nouvelles chutes de neige

Activité sismique

Ville Distance Mag. Time & Date
Anthony, Kansas 137 Miles terrestres 3.0 06:55 CDT
2014-10-21
Anthony, Kansas 136 Miles terrestres 2.6 18:30 CDT
2014-10-20
Anthony, Kansas 137 Miles terrestres 2.6 16:33 CDT
2014-10-20
Anthony, Kansas 137 Miles terrestres 3.1 09:25 CDT
2014-10-20
Minimum magnitude displayed is 2.5.

Températures des eaux côtières

Lieu Température
Aucun rapport de station

Stations météo à proximité